createdAt,value
2018-05-13T00:00:25.458Z,49.10
2018-05-13T00:01:28.793Z,49.11
2018-05-13T00:02:32.156Z,49.12
2018-05-13T00:03:35.485Z,49.11
2018-05-13T00:04:38.799Z,49.15
2018-05-13T00:05:42.120Z,49.18
2018-05-13T00:06:45.571Z,49.21
2018-05-13T00:07:48.908Z,49.29
2018-05-13T00:08:52.227Z,49.33
2018-05-13T00:09:55.567Z,49.35
2018-05-13T00:10:58.913Z,49.39
2018-05-13T00:12:02.262Z,49.43
2018-05-13T00:13:05.618Z,49.48
2018-05-13T00:14:08.941Z,49.52
2018-05-13T00:15:12.266Z,49.52
2018-05-13T00:16:15.602Z,49.53
2018-05-13T00:17:18.927Z,49.54
2018-05-13T00:18:22.277Z,49.56
2018-05-13T00:19:25.607Z,49.56
2018-05-13T00:20:28.940Z,49.52
2018-05-13T00:21:32.267Z,49.47
2018-05-13T00:22:35.590Z,49.46
2018-05-13T00:23:39.214Z,49.46
2018-05-13T00:24:42.627Z,49.45
2018-05-13T00:25:46.106Z,49.49
2018-05-13T00:26:49.438Z,49.58
2018-05-13T00:27:52.742Z,49.65
2018-05-13T00:28:56.158Z,49.73
2018-05-13T00:29:59.496Z,49.78
2018-05-13T00:31:02.828Z,49.78
2018-05-13T00:32:06.154Z,49.83
2018-05-13T00:33:09.472Z,49.93
2018-05-13T00:34:12.831Z,49.98
2018-05-13T00:35:16.229Z,50.04
2018-05-13T00:36:19.538Z,50.09
2018-05-13T00:37:22.887Z,50.14
2018-05-13T00:38:26.523Z,50.18
2018-05-13T00:39:29.875Z,50.22
2018-05-13T00:40:33.190Z,50.21
2018-05-13T00:41:36.507Z,50.17
2018-05-13T00:42:39.833Z,50.18
2018-05-13T00:43:43.159Z,50.16
2018-05-13T00:44:46.543Z,50.17
2018-05-13T00:45:49.876Z,50.14
2018-05-13T00:46:53.203Z,50.17
2018-05-13T00:47:56.532Z,50.20
2018-05-13T00:48:59.989Z,50.22
2018-05-13T00:50:03.374Z,50.26
2018-05-13T00:51:06.763Z,50.29
2018-05-13T00:52:10.084Z,50.32
2018-05-13T00:53:13.418Z,50.33
2018-05-13T00:54:28.482Z,50.37
2018-05-13T00:55:31.838Z,50.46
2018-05-13T00:56:35.154Z,50.35
2018-05-13T00:57:38.542Z,50.41
2018-05-13T00:58:41.899Z,50.45
2018-05-13T00:59:45.223Z,50.49
2018-05-13T01:00:48.551Z,50.52
2018-05-13T01:01:51.861Z,50.56
2018-05-13T01:02:55.183Z,50.60
2018-05-13T01:03:58.492Z,50.64
2018-05-13T01:05:01.808Z,50.65
2018-05-13T01:06:05.160Z,50.67
2018-05-13T01:07:08.483Z,50.71
2018-05-13T01:08:11.987Z,50.78
2018-05-13T01:09:15.319Z,50.85
2018-05-13T01:10:18.719Z,50.85
2018-05-13T01:11:22.039Z,50.78
2018-05-13T01:12:25.375Z,50.72
2018-05-13T01:13:28.704Z,50.65
2018-05-13T01:14:32.029Z,50.61
2018-05-13T01:15:35.349Z,50.61
2018-05-13T01:16:38.682Z,50.65
2018-05-13T01:17:42.007Z,50.67
2018-05-13T01:18:45.318Z,50.68
2018-05-13T01:19:48.630Z,50.68
2018-05-13T01:20:51.984Z,50.71
2018-05-13T01:21:55.315Z,50.75
2018-05-13T01:22:58.637Z,50.81
2018-05-13T01:24:02.213Z,50.91
2018-05-13T01:25:05.525Z,50.96
2018-05-13T01:26:08.844Z,51.03
2018-05-13T01:27:12.190Z,51.08
2018-05-13T01:28:15.514Z,51.11
2018-05-13T01:29:18.855Z,51.12
2018-05-13T01:30:22.167Z,51.10
2018-05-13T01:31:25.501Z,51.10
2018-05-13T01:32:28.893Z,51.10
2018-05-13T01:33:32.219Z,51.16
2018-05-13T01:34:35.635Z,51.21
2018-05-13T01:35:38.974Z,51.25
2018-05-13T01:36:42.494Z,51.36
2018-05-13T01:37:45.851Z,51.46
2018-05-13T01:38:49.170Z,51.54
2018-05-13T01:39:52.513Z,51.58
2018-05-13T01:40:55.838Z,51.59
2018-05-13T01:41:59.170Z,51.62
2018-05-13T01:43:02.510Z,51.68
2018-05-13T01:44:05.879Z,51.77
2018-05-13T01:45:09.348Z,51.84
2018-05-13T01:46:12.667Z,51.85
2018-05-13T01:47:15.971Z,51.85
2018-05-13T01:48:19.313Z,51.84
2018-05-13T01:49:22.625Z,51.85
2018-05-13T01:50:25.949Z,51.86
2018-05-13T01:51:29.263Z,51.90
2018-05-13T01:52:32.573Z,51.86
2018-05-13T01:53:35.937Z,51.88
2018-05-13T01:54:39.261Z,51.87
2018-05-13T01:55:42.597Z,51.88
2018-05-13T01:56:45.916Z,51.86
2018-05-13T01:57:49.238Z,51.82
2018-05-13T01:58:52.611Z,51.75
2018-05-13T01:59:56.013Z,51.68
2018-05-13T02:00:59.323Z,51.43
2018-05-13T02:02:02.634Z,51.22
2018-05-13T02:03:05.951Z,51.11
2018-05-13T02:04:09.290Z,50.87
2018-05-13T02:05:12.634Z,50.82
2018-05-13T02:06:15.947Z,50.67
2018-05-13T02:07:19.266Z,50.31
2018-05-13T02:08:22.592Z,50.01
2018-05-13T02:09:25.946Z,49.74
2018-05-13T02:10:29.254Z,49.54
2018-05-13T02:11:32.566Z,49.35
2018-05-13T02:12:35.884Z,49.20
2018-05-13T02:13:39.193Z,49.08
2018-05-13T02:14:42.540Z,48.97
2018-05-13T02:15:45.858Z,48.83
2018-05-13T02:16:49.310Z,48.71
2018-05-13T02:17:52.628Z,48.59
2018-05-13T02:18:55.962Z,48.48
2018-05-13T02:19:59.297Z,48.35
2018-05-13T02:21:02.624Z,48.26
2018-05-13T02:22:05.948Z,48.17
2018-05-13T02:23:09.269Z,48.11
2018-05-13T02:24:13.615Z,48.08
2018-05-13T02:25:16.948Z,48.02
2018-05-13T02:26:20.258Z,47.97
2018-05-13T02:27:23.579Z,47.92
2018-05-13T02:28:26.896Z,47.90
2018-05-13T02:29:30.234Z,47.87
2018-05-13T02:30:33.584Z,47.84
2018-05-13T02:31:36.889Z,47.84
2018-05-13T02:32:40.193Z,47.84
2018-05-13T02:33:43.518Z,47.84
2018-05-13T02:34:46.851Z,47.85
2018-05-13T02:35:50.190Z,47.87
2018-05-13T02:36:53.504Z,47.88
2018-05-13T02:37:56.818Z,47.90
2018-05-13T02:39:00.145Z,47.92
2018-05-13T02:40:03.496Z,47.96
2018-05-13T02:41:06.836Z,47.99
2018-05-13T02:42:10.152Z,48.02
2018-05-13T02:43:13.461Z,48.04
2018-05-13T02:44:16.798Z,48.07
2018-05-13T02:45:20.109Z,48.10
2018-05-13T02:46:23.455Z,48.15
2018-05-13T02:47:26.767Z,48.18
2018-05-13T02:48:30.090Z,48.20
2018-05-13T02:49:33.420Z,48.23
2018-05-13T02:50:36.750Z,48.27
2018-05-13T02:51:40.098Z,48.30
2018-05-13T02:52:43.427Z,48.33
2018-05-13T02:53:46.760Z,48.37
2018-05-13T02:54:50.092Z,48.41
2018-05-13T02:55:53.403Z,48.43
2018-05-13T02:56:56.755Z,48.46
2018-05-13T02:58:00.084Z,48.47
2018-05-13T02:59:03.397Z,48.49
2018-05-13T03:00:06.734Z,48.53
2018-05-13T03:01:10.056Z,48.56
2018-05-13T03:02:13.432Z,48.65
2018-05-13T03:03:16.744Z,48.73
2018-05-13T03:04:20.064Z,48.80
2018-05-13T03:05:23.391Z,48.84
2018-05-13T03:06:26.710Z,48.95
2018-05-13T03:07:30.046Z,49.03
2018-05-13T03:08:33.382Z,49.09
2018-05-13T03:09:36.696Z,49.14
2018-05-13T03:10:40.013Z,49.20
2018-05-13T03:11:43.333Z,49.26
2018-05-13T03:12:46.719Z,49.35
2018-05-13T03:13:50.048Z,49.39
2018-05-13T03:14:53.358Z,49.44
2018-05-13T03:15:56.678Z,49.48
2018-05-13T03:17:00.007Z,49.52
2018-05-13T03:18:03.355Z,49.58
2018-05-13T03:19:06.710Z,49.68
2018-05-13T03:20:10.013Z,49.80
2018-05-13T03:21:13.342Z,49.90
2018-05-13T03:22:16.668Z,50.02
2018-05-13T03:23:20.007Z,50.13
2018-05-13T03:24:23.437Z,50.20
2018-05-13T03:25:26.761Z,50.29
2018-05-13T03:26:30.075Z,50.34
2018-05-13T03:27:33.399Z,50.41
2018-05-13T03:28:36.766Z,50.50
2018-05-13T03:29:40.102Z,50.53
2018-05-13T03:30:43.426Z,50.56
2018-05-13T03:31:46.759Z,50.57
2018-05-13T03:32:50.139Z,50.60
2018-05-13T03:33:53.486Z,50.64
2018-05-13T03:34:56.808Z,50.66
2018-05-13T03:36:00.134Z,50.68
2018-05-13T03:37:03.457Z,50.71
2018-05-13T03:38:06.799Z,50.75
2018-05-13T03:39:10.252Z,50.76
2018-05-13T03:40:13.573Z,50.78
2018-05-13T03:41:16.976Z,50.80
2018-05-13T03:42:20.292Z,50.77
2018-05-13T03:43:23.610Z,50.73
2018-05-13T03:44:26.957Z,50.71
2018-05-13T03:45:30.411Z,50.70
2018-05-13T03:46:33.739Z,50.68
2018-05-13T03:47:37.063Z,50.68
2018-05-13T03:48:40.383Z,50.68
2018-05-13T03:49:43.726Z,50.68
2018-05-13T03:50:47.074Z,50.68
2018-05-13T03:51:50.395Z,50.67
2018-05-13T03:52:53.716Z,50.66
2018-05-13T03:53:57.059Z,50.67
2018-05-13T03:55:00.412Z,50.68
2018-05-13T03:56:03.731Z,50.71
2018-05-13T03:57:07.050Z,50.70
2018-05-13T03:58:10.401Z,50.70
2018-05-13T03:59:13.730Z,50.72
2018-05-13T04:00:17.091Z,50.76
2018-05-13T04:01:20.407Z,50.83
2018-05-13T04:02:23.716Z,50.88
2018-05-13T04:03:27.067Z,50.98
2018-05-13T04:04:30.386Z,51.06
2018-05-13T04:05:33.725Z,51.10
2018-05-13T04:06:37.045Z,51.09
2018-05-13T04:09:40.942Z,51.24
2018-05-13T04:10:56.024Z,51.28
2018-05-13T04:12:11.289Z,51.32
2018-05-13T04:13:26.426Z,51.34
2018-05-13T04:14:41.641Z,51.40
2018-05-13T04:15:45.052Z,51.46
2018-05-13T04:16:48.389Z,51.50
2018-05-13T04:17:51.719Z,51.55
2018-05-13T04:18:55.020Z,51.61
2018-05-13T04:19:58.338Z,51.65
2018-05-13T04:21:01.662Z,51.70
2018-05-13T04:22:05.033Z,51.72
2018-05-13T04:23:08.362Z,51.73
2018-05-13T04:24:11.731Z,51.75
2018-05-13T04:25:15.417Z,51.75
2018-05-13T04:26:18.671Z,51.75
2018-05-13T04:27:22.009Z,51.74
2018-05-13T04:28:25.476Z,51.79
2018-05-13T04:29:28.779Z,51.82
2018-05-13T04:30:32.094Z,51.87
2018-05-13T04:31:35.434Z,51.88
2018-05-13T04:32:38.797Z,51.87
2018-05-13T04:33:42.110Z,51.89
2018-05-13T04:34:45.435Z,51.92
2018-05-13T04:35:48.754Z,51.90
2018-05-13T04:36:52.146Z,51.92
2018-05-13T04:37:55.687Z,51.93
2018-05-13T04:38:59.032Z,51.90
2018-05-13T04:40:02.386Z,51.90
2018-05-13T04:41:05.713Z,51.93
2018-05-13T04:42:09.110Z,51.91
2018-05-13T04:43:12.423Z,51.91
2018-05-13T04:44:15.759Z,52.02
2018-05-13T04:45:19.081Z,52.00
2018-05-13T04:46:22.404Z,52.02
2018-05-13T04:47:25.735Z,52.00
2018-05-13T04:48:29.067Z,52.00
2018-05-13T04:49:32.390Z,52.00
2018-05-13T04:50:35.711Z,52.08
2018-05-13T04:51:39.178Z,52.15
2018-05-13T04:52:42.520Z,52.19
2018-05-13T04:53:45.970Z,52.22
2018-05-13T04:54:49.292Z,52.28
2018-05-13T04:55:52.655Z,52.32
2018-05-13T04:56:55.984Z,52.36
2018-05-13T04:57:59.298Z,52.42
2018-05-13T04:59:02.635Z,52.48
2018-05-13T05:00:05.974Z,52.45
2018-05-13T05:01:09.323Z,52.47
2018-05-13T05:02:12.690Z,52.48
2018-05-13T05:03:16.014Z,52.53
2018-05-13T05:04:19.362Z,52.52
2018-05-13T05:05:22.689Z,52.51
2018-05-13T05:06:26.025Z,52.54
2018-05-13T05:07:29.396Z,52.55
2018-05-13T05:08:32.706Z,52.59
2018-05-13T05:09:36.053Z,52.59
2018-05-13T05:10:39.403Z,52.65
2018-05-13T05:11:42.730Z,52.67
2018-05-13T05:12:46.059Z,52.72
2018-05-13T05:13:49.384Z,52.79
2018-05-13T05:14:52.755Z,52.87
2018-05-13T05:15:56.067Z,52.93
2018-05-13T05:16:59.376Z,52.93
2018-05-13T05:18:02.714Z,52.91
2018-05-13T05:19:06.023Z,52.87
2018-05-13T05:20:09.367Z,52.82
2018-05-13T05:21:12.720Z,52.72
2018-05-13T05:22:16.063Z,52.58
2018-05-13T05:23:19.410Z,52.44
2018-05-13T05:24:22.729Z,52.35
2018-05-13T05:25:26.398Z,52.27
2018-05-13T05:26:29.751Z,52.22
2018-05-13T05:27:33.072Z,52.12
2018-05-13T05:28:36.398Z,51.99
2018-05-13T05:29:39.731Z,51.86
2018-05-13T05:30:43.067Z,51.65
2018-05-13T05:31:46.403Z,51.55
2018-05-13T05:32:49.717Z,51.43
2018-05-13T05:33:53.056Z,51.44
2018-05-13T05:34:56.391Z,51.38
2018-05-13T05:35:59.754Z,51.34
2018-05-13T05:37:03.079Z,51.20
2018-05-13T05:38:06.425Z,50.98
2018-05-13T05:39:09.766Z,50.72
2018-05-13T05:40:13.087Z,50.34
2018-05-13T05:41:16.443Z,49.87
2018-05-13T05:42:19.794Z,49.25
2018-05-13T05:43:23.151Z,48.75
2018-05-13T05:44:26.484Z,48.41
2018-05-13T05:45:29.812Z,48.19
2018-05-13T05:46:33.160Z,48.07
2018-05-13T05:47:36.508Z,48.00
2018-05-13T05:48:39.819Z,47.99
2018-05-13T05:49:43.152Z,48.04
2018-05-13T05:50:46.458Z,48.13
2018-05-13T05:51:49.818Z,48.16
2018-05-13T05:52:53.143Z,48.14
2018-05-13T05:53:56.500Z,48.02
2018-05-13T05:54:59.814Z,47.80
2018-05-13T05:56:03.158Z,47.56
2018-05-13T05:57:06.563Z,47.27
2018-05-13T05:58:09.891Z,47.03
2018-05-13T05:59:13.214Z,46.92
2018-05-13T06:00:16.534Z,46.94
2018-05-13T06:01:19.857Z,46.85
2018-05-13T06:02:23.210Z,46.81
2018-05-13T06:03:26.522Z,46.84
2018-05-13T06:04:29.840Z,46.87
2018-05-13T06:05:33.241Z,46.91
2018-05-13T06:06:36.627Z,46.88
2018-05-13T06:07:39.969Z,46.84
2018-05-13T06:08:43.282Z,46.82
2018-05-13T06:09:46.599Z,46.80
2018-05-13T06:10:49.923Z,46.80
2018-05-13T06:11:53.236Z,46.80
2018-05-13T06:12:56.578Z,46.75
2018-05-13T06:13:59.902Z,46.76
2018-05-13T06:15:03.228Z,46.76
2018-05-13T06:16:06.580Z,46.71
2018-05-13T06:17:09.891Z,46.68
2018-05-13T06:18:13.246Z,46.68
2018-05-13T06:19:16.635Z,46.70
2018-05-13T06:20:20.018Z,46.86
2018-05-13T06:21:23.343Z,46.88
2018-05-13T06:22:26.685Z,46.84
2018-05-13T06:23:30.174Z,46.82
2018-05-13T06:24:33.493Z,46.89
2018-05-13T06:25:37.090Z,46.94
2018-05-13T06:26:40.419Z,46.99
2018-05-13T06:27:43.739Z,46.97
2018-05-13T06:28:47.110Z,46.88
2018-05-13T06:29:50.423Z,46.52
2018-05-13T06:30:53.765Z,46.15
2018-05-13T06:31:57.097Z,45.75
2018-05-13T06:33:00.482Z,45.41
2018-05-13T06:34:03.829Z,45.15
2018-05-13T06:35:07.150Z,45.00
2018-05-13T06:36:10.480Z,44.88
2018-05-13T06:37:13.795Z,44.74
2018-05-13T06:38:17.102Z,44.68
2018-05-13T06:39:20.466Z,44.68
2018-05-13T06:40:23.779Z,44.76
2018-05-13T06:41:27.103Z,44.83
2018-05-13T06:42:30.424Z,44.92
2018-05-13T06:43:33.745Z,45.03
2018-05-13T06:44:37.158Z,45.10
2018-05-13T06:45:40.457Z,45.09
2018-05-13T06:46:43.774Z,45.01
2018-05-13T06:47:47.097Z,44.87
2018-05-13T06:48:50.416Z,44.71
2018-05-13T06:49:53.846Z,44.55
2018-05-13T06:50:57.205Z,44.30
2018-05-13T06:52:00.493Z,44.01
2018-05-13T06:53:03.818Z,43.75
2018-05-13T06:54:07.123Z,43.68
2018-05-13T06:55:10.468Z,43.77
2018-05-13T06:56:13.795Z,43.92
2018-05-13T06:57:17.191Z,44.06
2018-05-13T06:58:20.648Z,44.19
2018-05-13T06:59:23.971Z,44.24
2018-05-13T07:00:27.318Z,44.24
2018-05-13T07:01:30.626Z,44.34
2018-05-13T07:02:33.952Z,44.43
2018-05-13T07:03:37.247Z,44.50
2018-05-13T07:04:40.564Z,44.57
2018-05-13T07:05:43.902Z,44.60
2018-05-13T07:06:47.240Z,44.67
2018-05-13T07:07:50.555Z,44.81
2018-05-13T07:08:53.862Z,44.90
2018-05-13T07:09:57.187Z,44.93
2018-05-13T07:11:00.525Z,45.04
2018-05-13T07:12:03.845Z,45.12
2018-05-13T07:13:07.174Z,45.27
2018-05-13T07:14:10.488Z,45.44
2018-05-13T07:15:13.811Z,45.57
2018-05-13T07:16:17.152Z,45.62
2018-05-13T07:17:20.470Z,45.67
2018-05-13T07:18:23.779Z,45.73
2018-05-13T07:19:27.103Z,45.84
2018-05-13T07:20:30.419Z,45.98
2018-05-13T07:21:33.778Z,46.10
2018-05-13T07:22:37.094Z,46.19
2018-05-13T07:23:40.791Z,46.28
2018-05-13T07:24:44.113Z,46.35
2018-05-13T07:25:47.669Z,46.47
2018-05-13T07:26:51.007Z,46.54
2018-05-13T07:27:54.319Z,46.63
2018-05-13T07:28:57.639Z,46.75
2018-05-13T07:30:00.962Z,46.87
2018-05-13T07:31:04.274Z,46.98
2018-05-13T07:32:07.615Z,46.97
2018-05-13T07:33:11.007Z,47.01
2018-05-13T07:34:14.335Z,47.01
2018-05-13T07:35:17.642Z,46.98
2018-05-13T07:36:21.046Z,46.88
2018-05-13T07:37:24.390Z,46.87
2018-05-13T07:38:27.776Z,46.78
2018-05-13T07:39:31.118Z,46.71
2018-05-13T07:40:34.435Z,46.73
2018-05-13T07:41:37.747Z,46.82
2018-05-13T07:42:41.087Z,46.94
2018-05-13T07:43:44.391Z,47.05
2018-05-13T07:44:47.707Z,47.21
2018-05-13T07:45:51.016Z,47.38
2018-05-13T07:46:54.328Z,47.48
2018-05-13T07:47:57.781Z,47.49
2018-05-13T07:49:01.095Z,47.54
2018-05-13T07:50:04.402Z,47.55
2018-05-13T07:51:07.731Z,47.58
2018-05-13T07:52:11.046Z,47.61
2018-05-13T07:53:14.390Z,47.51
2018-05-13T07:54:17.711Z,47.49
2018-05-13T07:55:21.032Z,47.44
2018-05-13T07:56:24.343Z,47.37
2018-05-13T07:57:27.678Z,47.31
2018-05-13T07:58:32.359Z,47.32
2018-05-13T07:59:35.698Z,47.36
2018-05-13T08:00:39.029Z,47.40
2018-05-13T08:01:42.336Z,47.44
2018-05-13T08:02:45.650Z,47.46
2018-05-13T08:03:48.993Z,47.48
2018-05-13T08:04:52.301Z,47.51
2018-05-13T08:05:55.618Z,47.49
2018-05-13T08:06:58.929Z,47.42
2018-05-13T08:08:02.282Z,47.37
2018-05-13T08:09:05.695Z,47.36
2018-05-13T08:10:09.017Z,47.28
2018-05-13T08:11:12.428Z,47.30
2018-05-13T08:12:15.718Z,47.37
2018-05-13T08:13:19.243Z,47.47
2018-05-13T08:14:22.603Z,47.58
2018-05-13T08:15:25.932Z,47.65
2018-05-13T08:16:29.259Z,47.73
2018-05-13T08:17:32.579Z,47.87
2018-05-13T08:18:35.885Z,48.03
2018-05-13T08:19:39.235Z,48.14
2018-05-13T08:20:42.583Z,48.18
2018-05-13T08:21:45.894Z,48.25
2018-05-13T08:22:49.208Z,48.27
2018-05-13T08:23:52.584Z,48.23
2018-05-13T08:24:55.911Z,48.26
2018-05-13T08:25:59.338Z,48.29
2018-05-13T08:27:02.646Z,48.33
2018-05-13T08:28:05.983Z,48.35
2018-05-13T08:29:09.399Z,48.35
2018-05-13T08:30:12.751Z,48.39
2018-05-13T08:31:16.066Z,48.37
2018-05-13T08:32:19.378Z,48.47
2018-05-13T08:33:22.707Z,48.59
2018-05-13T08:34:26.075Z,48.72
2018-05-13T08:35:29.414Z,48.83
2018-05-13T08:36:32.768Z,48.91
2018-05-13T08:37:36.132Z,49.09
2018-05-13T08:38:39.453Z,49.39
2018-05-13T08:39:42.994Z,49.71
2018-05-13T08:40:46.319Z,50.31
2018-05-13T08:41:49.967Z,50.50
2018-05-13T08:42:53.337Z,50.77
2018-05-13T08:43:56.652Z,51.11
2018-05-13T08:44:59.969Z,51.62
2018-05-13T08:46:03.314Z,52.36
2018-05-13T08:47:06.627Z,52.54
2018-05-13T08:48:09.937Z,52.71
2018-05-13T08:49:13.263Z,53.34
2018-05-13T08:50:16.600Z,53.55
2018-05-13T08:51:19.947Z,53.79
2018-05-13T08:52:23.272Z,54.02
2018-05-13T08:53:26.636Z,53.92
2018-05-13T08:54:29.963Z,53.84
2018-05-13T08:55:33.286Z,53.75
2018-05-13T08:56:36.638Z,53.96
2018-05-13T08:57:39.987Z,54.36
2018-05-13T08:58:43.326Z,54.53
2018-05-13T08:59:46.636Z,54.68
2018-05-13T09:00:49.972Z,54.58
2018-05-13T09:01:53.328Z,54.52
2018-05-13T09:02:56.647Z,54.79
2018-05-13T09:03:59.960Z,54.73
2018-05-13T09:05:03.282Z,54.58
2018-05-13T09:06:06.621Z,54.68
2018-05-13T09:07:09.953Z,55.07
2018-05-13T09:08:13.295Z,55.00
2018-05-13T09:09:16.630Z,55.16
2018-05-13T09:10:19.943Z,55.16
2018-05-13T09:11:23.286Z,55.19
2018-05-13T09:12:26.635Z,55.31
2018-05-13T09:13:29.983Z,55.32
2018-05-13T09:14:33.300Z,55.28
2018-05-13T09:15:36.623Z,55.38
2018-05-13T09:16:40.200Z,55.76
2018-05-13T09:17:43.552Z,56.03
2018-05-13T09:18:46.973Z,56.06
2018-05-13T09:19:50.306Z,56.17
2018-05-13T09:20:53.658Z,56.22
2018-05-13T09:21:56.963Z,56.34
2018-05-13T09:23:00.319Z,56.30
2018-05-13T09:24:03.631Z,56.73
2018-05-13T09:25:06.965Z,57.12
2018-05-13T09:26:10.664Z,57.20
2018-05-13T09:27:14.045Z,56.79
2018-05-13T09:28:17.594Z,56.92
2018-05-13T09:29:20.919Z,57.14
2018-05-13T09:30:24.296Z,56.97
2018-05-13T09:31:27.622Z,57.15
2018-05-13T09:32:30.939Z,57.15
2018-05-13T09:33:34.310Z,57.06
2018-05-13T09:34:37.671Z,57.25
2018-05-13T09:35:40.995Z,57.33
2018-05-13T09:36:44.320Z,57.35
2018-05-13T09:37:47.655Z,57.42
2018-05-13T09:38:51.099Z,57.70
2018-05-13T09:39:54.431Z,57.43
2018-05-13T09:40:57.764Z,57.27
2018-05-13T09:42:01.092Z,57.11
2018-05-13T09:43:04.421Z,57.08
2018-05-13T09:44:07.763Z,57.12
2018-05-13T09:45:11.123Z,57.27
2018-05-13T09:46:14.441Z,57.27
2018-05-13T09:48:27.455Z,57.53
2018-05-13T09:49:30.798Z,57.45
2018-05-13T09:50:34.119Z,57.47
2018-05-13T09:51:37.460Z,57.43
2018-05-13T09:52:40.775Z,57.61
2018-05-13T09:53:44.090Z,57.91
2018-05-13T09:54:47.443Z,58.06
2018-05-13T09:55:50.820Z,58.36
2018-05-13T09:56:54.207Z,58.73
2018-05-13T09:57:57.622Z,58.92
2018-05-13T09:59:00.961Z,58.94
2018-05-13T10:00:04.322Z,58.86
2018-05-13T10:01:07.650Z,58.85
2018-05-13T10:02:11.122Z,59.11
2018-05-13T10:03:14.443Z,59.37
2018-05-13T10:04:17.764Z,59.47
2018-05-13T10:05:21.112Z,59.74
2018-05-13T10:06:24.457Z,59.98
2018-05-13T10:07:27.824Z,60.08
2018-05-13T10:08:31.198Z,60.36
2018-05-13T10:09:34.601Z,60.56
2018-05-13T10:10:37.900Z,60.77
2018-05-13T10:11:41.222Z,60.64
2018-05-13T10:12:44.571Z,60.56
2018-05-13T10:13:47.883Z,60.57
2018-05-13T10:14:51.380Z,60.59
2018-05-13T10:15:54.734Z,60.57
2018-05-13T10:16:58.054Z,60.70
2018-05-13T10:18:01.399Z,60.53
2018-05-13T10:19:04.777Z,60.59
2018-05-13T10:20:08.119Z,60.69
2018-05-13T10:21:11.488Z,60.75
2018-05-13T10:22:14.904Z,60.93
2018-05-13T10:23:18.309Z,61.12
2018-05-13T10:24:21.573Z,61.26
2018-05-13T10:25:24.900Z,61.29
2018-05-13T10:26:28.415Z,61.30
2018-05-13T10:27:31.750Z,61.17
2018-05-13T10:28:35.079Z,61.22
2018-05-13T10:29:38.396Z,61.37
2018-05-13T10:30:41.761Z,61.22
2018-05-13T10:31:45.149Z,61.26
2018-05-13T10:32:48.477Z,61.11
2018-05-13T10:33:51.806Z,61.12
2018-05-13T10:34:55.142Z,61.18
2018-05-13T10:35:58.467Z,61.16
2018-05-13T10:37:01.833Z,61.36
2018-05-13T10:38:05.146Z,61.36
2018-05-13T10:39:08.507Z,61.41
2018-05-13T10:40:11.816Z,61.48
2018-05-13T10:41:15.139Z,61.56
2018-05-13T10:42:18.524Z,61.68
2018-05-13T10:43:21.954Z,61.79
2018-05-13T10:44:25.279Z,61.97
2018-05-13T10:45:28.636Z,62.12
2018-05-13T10:46:31.964Z,62.31
2018-05-13T10:47:35.412Z,62.47
2018-05-13T10:48:38.916Z,62.62
2018-05-13T10:49:42.409Z,62.67
2018-05-13T10:50:45.747Z,62.62
2018-05-13T10:51:49.167Z,62.65
2018-05-13T10:52:52.519Z,62.54
2018-05-13T10:53:55.851Z,62.34
2018-05-13T10:54:59.243Z,62.58
2018-05-13T10:56:02.578Z,62.74
2018-05-13T10:57:05.905Z,62.64
2018-05-13T10:58:09.251Z,62.73
2018-05-13T10:59:12.575Z,62.58
2018-05-13T11:00:15.907Z,62.46
2018-05-13T11:01:19.232Z,62.27
2018-05-13T11:02:22.541Z,62.32
2018-05-13T11:03:25.894Z,62.59
2018-05-13T11:04:29.217Z,62.66
2018-05-13T11:05:32.543Z,62.57
2018-05-13T11:06:35.874Z,62.77
2018-05-13T11:07:39.207Z,62.81
2018-05-13T11:08:42.541Z,62.72
2018-05-13T11:09:45.875Z,62.84
2018-05-13T11:10:49.218Z,63.02
2018-05-13T11:11:52.551Z,63.03
2018-05-13T11:12:55.879Z,63.11
2018-05-13T11:13:59.242Z,63.21
2018-05-13T11:15:02.555Z,63.29
2018-05-13T11:16:05.887Z,63.35
2018-05-13T11:17:09.206Z,63.28
2018-05-13T11:18:12.522Z,63.09
2018-05-13T11:19:15.948Z,63.15
2018-05-13T11:20:19.281Z,63.10
2018-05-13T11:21:22.632Z,63.15
2018-05-13T11:22:25.946Z,63.19
2018-05-13T11:23:29.257Z,63.15
2018-05-13T11:24:32.615Z,63.25
2018-05-13T11:25:38.975Z,63.45
2018-05-13T11:26:42.364Z,63.55
2018-05-13T11:27:45.637Z,63.61
2018-05-13T11:28:48.973Z,63.74
2018-05-13T11:29:52.353Z,63.75
2018-05-13T11:30:55.675Z,63.59
2018-05-13T11:31:58.998Z,63.50
2018-05-13T11:33:02.327Z,63.61
2018-05-13T11:34:05.637Z,63.61
2018-05-13T11:35:08.982Z,63.81
2018-05-13T11:36:12.292Z,63.87
2018-05-13T11:37:15.609Z,63.93
2018-05-13T11:38:18.947Z,63.84
2018-05-13T11:39:22.279Z,63.88
2018-05-13T11:40:25.624Z,63.89
2018-05-13T11:41:28.951Z,63.95
2018-05-13T11:42:32.290Z,64.08
2018-05-13T11:43:35.667Z,64.07
2018-05-13T11:44:39.011Z,64.09
2018-05-13T11:45:42.368Z,64.16
2018-05-13T11:46:45.713Z,64.36
2018-05-13T11:47:49.011Z,64.54
2018-05-13T11:48:52.358Z,64.69
2018-05-13T11:49:55.681Z,64.60
2018-05-13T11:50:59.032Z,64.42
2018-05-13T11:52:02.363Z,64.58
2018-05-13T11:53:05.682Z,64.61
2018-05-13T11:54:09.015Z,64.56
2018-05-13T11:55:12.370Z,64.50
2018-05-13T11:56:15.714Z,64.18
2018-05-13T11:57:19.070Z,64.20
2018-05-13T11:58:22.393Z,64.33
2018-05-13T11:59:25.729Z,64.50
2018-05-13T12:00:29.075Z,64.42
2018-05-13T12:01:33.045Z,64.44
2018-05-13T12:02:36.387Z,64.66
2018-05-13T12:03:39.726Z,64.64
2018-05-13T12:04:43.325Z,64.46
2018-05-13T12:05:46.665Z,64.37
2018-05-13T12:06:50.067Z,64.35
2018-05-13T12:07:53.417Z,64.50
2018-05-13T12:08:56.783Z,64.67
2018-05-13T12:10:00.122Z,64.74
2018-05-13T12:11:03.431Z,64.67
2018-05-13T12:12:06.783Z,64.50
2018-05-13T12:13:10.146Z,64.34
2018-05-13T12:14:13.420Z,64.45
2018-05-13T12:15:16.801Z,64.38
2018-05-13T12:16:20.080Z,64.35
2018-05-13T12:17:23.411Z,64.21
2018-05-13T12:18:27.472Z,64.18
2018-05-13T12:19:30.784Z,64.14
2018-05-13T12:20:34.107Z,64.11
2018-05-13T12:21:37.446Z,64.15
2018-05-13T12:22:40.802Z,64.01
2018-05-13T12:23:44.111Z,63.93
2018-05-13T12:24:47.426Z,63.89
2018-05-13T12:25:50.747Z,64.06
2018-05-13T12:26:54.215Z,64.14
2018-05-13T12:27:57.606Z,64.28
2018-05-13T12:29:01.035Z,64.45
2018-05-13T12:30:04.247Z,64.62
2018-05-13T12:31:07.573Z,64.71
2018-05-13T12:32:10.897Z,64.67
2018-05-13T12:33:14.259Z,64.85
2018-05-13T12:34:17.600Z,64.88
2018-05-13T12:35:20.925Z,64.99
2018-05-13T12:36:24.249Z,64.95
2018-05-13T12:37:27.725Z,64.97
2018-05-13T12:38:31.058Z,64.82
2018-05-13T12:39:34.400Z,64.88
2018-05-13T12:40:37.736Z,64.96
2018-05-13T12:41:41.077Z,65.12
2018-05-13T12:42:44.382Z,65.39
2018-05-13T12:43:47.731Z,65.46
2018-05-13T12:44:51.054Z,65.53
2018-05-13T12:45:54.375Z,65.60
2018-05-13T12:46:57.697Z,65.67
2018-05-13T12:48:01.026Z,65.62
2018-05-13T12:49:04.369Z,65.72
2018-05-13T12:50:07.723Z,65.99
2018-05-13T12:51:11.019Z,66.12
2018-05-13T12:52:14.350Z,66.38
2018-05-13T12:53:17.666Z,66.49
2018-05-13T12:54:21.024Z,66.41
2018-05-13T12:55:24.365Z,66.36
2018-05-13T12:56:27.687Z,66.54
2018-05-13T12:57:31.009Z,66.64
2018-05-13T12:58:34.373Z,66.45
2018-05-13T12:59:37.723Z,66.29
2018-05-13T13:00:41.047Z,66.32
2018-05-13T13:01:44.365Z,66.41
2018-05-13T13:02:47.674Z,66.48
2018-05-13T13:03:51.016Z,66.70
2018-05-13T13:04:54.427Z,67.04
2018-05-13T13:05:57.735Z,67.02
2018-05-13T13:07:01.072Z,66.81
2018-05-13T13:08:04.427Z,66.67
2018-05-13T13:09:07.807Z,66.72
2018-05-13T13:10:11.108Z,66.92
2018-05-13T13:11:14.413Z,66.81
2018-05-13T13:12:17.739Z,66.79
2018-05-13T13:13:21.045Z,67.05
2018-05-13T13:14:24.388Z,67.10
2018-05-13T13:15:27.719Z,67.12
2018-05-13T13:16:31.058Z,67.29
2018-05-13T13:17:34.396Z,67.32
2018-05-13T13:18:37.746Z,67.46
2018-05-13T13:19:41.082Z,67.44
2018-05-13T13:20:44.428Z,67.26
2018-05-13T13:21:47.761Z,67.12
2018-05-13T13:22:51.087Z,67.11
2018-05-13T13:23:54.419Z,67.11
2018-05-13T13:24:57.731Z,67.04
2018-05-13T13:26:01.121Z,66.97
2018-05-13T13:27:04.642Z,67.01
2018-05-13T13:28:08.197Z,67.03
2018-05-13T13:29:11.536Z,67.03
2018-05-13T13:30:14.877Z,67.00
2018-05-13T13:31:18.245Z,66.99
2018-05-13T13:32:21.571Z,66.99
2018-05-13T13:33:24.894Z,67.06
2018-05-13T13:34:28.208Z,66.92
2018-05-13T13:35:31.533Z,66.85
2018-05-13T13:36:34.905Z,66.79
2018-05-13T13:37:38.314Z,66.74
2018-05-13T13:38:41.630Z,66.73
2018-05-13T13:39:44.958Z,66.77